Аэропорт
Дашогуз (UTAT)

 UTAT / TAZ
ЗЦ Центральная Азия
Дашогуз (UTAT)
Дашогуз (UTAT)
 41.76110, 59.82670  / 272 ft

 UTAT 161600Z 02010KT CAVOK 05/M01 Q1008 R08/CLRD70 NOSIG
 UTAT 160442Z 1606/1706 09012KT 5000 BR SCT030 BKN050 530003 TEMPO 1606/1612 03016KT TEMPO 1612/1618 33016KT 3000 -RA OVC010 TEMPO 1618/1706 30016G26KT 2000 SN OVC005
UTAT_aip_1705
показать схемы

Аэропорт Дашогуз — аэропорт в 10 км на юго-запад от Дашогуза, Туркмения. Основан в 1924 году.

Дашогуз является одним из старейших аэропортов Туркмении. Первый авиарейс выполнен в 1924 году. В 2009 году завершена реконструкция здания аэровокзала. 



2019 © VATRUS division (Privacy Policy)